createdAt,value
2019-06-20T00:01:39.632Z,18.30
2019-06-20T00:04:08.728Z,18.73
2019-06-20T00:06:40.369Z,18.90
2019-06-20T00:09:09.179Z,18.57
2019-06-20T00:11:38.029Z,18.00
2019-06-20T00:14:06.854Z,17.10
2019-06-20T00:16:35.652Z,18.03
2019-06-20T00:19:04.616Z,17.43
2019-06-20T00:21:33.411Z,16.47
2019-06-20T00:24:02.620Z,19.60
2019-06-20T00:26:31.648Z,19.57
2019-06-20T00:29:00.447Z,18.57
2019-06-20T00:31:29.210Z,19.40
2019-06-20T00:33:58.018Z,18.50
2019-06-20T00:36:26.847Z,18.67
2019-06-20T00:38:55.640Z,17.73
2019-06-20T00:41:24.509Z,19.47
2019-06-20T00:43:53.303Z,19.83
2019-06-20T00:46:22.099Z,18.80
2019-06-20T00:48:51.043Z,19.27
2019-06-20T00:51:20.455Z,19.33
2019-06-20T00:53:49.275Z,20.03
2019-06-20T00:56:18.151Z,18.97
2019-06-20T00:58:46.928Z,19.07
2019-06-20T01:01:15.706Z,19.27
2019-06-20T01:03:44.498Z,21.77
2019-06-20T01:06:13.272Z,19.43
2019-06-20T01:08:42.231Z,20.03
2019-06-20T01:11:11.054Z,19.27
2019-06-20T01:13:39.843Z,19.23
2019-06-20T01:16:08.637Z,18.33
2019-06-20T01:18:37.429Z,19.87
2019-06-20T01:21:06.195Z,17.97
2019-06-20T01:23:34.952Z,19.47
2019-06-20T01:26:03.744Z,20.23
2019-06-20T01:28:32.595Z,20.77
2019-06-20T01:31:01.428Z,21.00
2019-06-20T01:33:30.343Z,21.50
2019-06-20T01:35:59.332Z,19.80
2019-06-20T01:38:28.123Z,19.67
2019-06-20T01:40:56.903Z,19.40
2019-06-20T01:43:25.709Z,22.97
2019-06-20T01:45:54.526Z,20.80
2019-06-20T01:48:23.320Z,20.30
2019-06-20T01:50:52.200Z,22.03
2019-06-20T01:53:20.973Z,21.93
2019-06-20T01:55:49.798Z,21.37
2019-06-20T01:58:18.901Z,20.13
2019-06-20T02:00:48.380Z,21.37
2019-06-20T02:03:17.144Z,21.13
2019-06-20T02:05:46.178Z,21.70
2019-06-20T02:08:15.276Z,22.80
2019-06-20T02:10:44.058Z,23.07
2019-06-20T02:13:12.920Z,19.97
2019-06-20T02:15:41.696Z,21.37
2019-06-20T02:18:10.598Z,22.20
2019-06-20T02:20:41.537Z,22.10
2019-06-20T02:23:10.471Z,21.73
2019-06-20T02:25:39.239Z,21.60
2019-06-20T02:28:08.031Z,22.53
2019-06-20T02:30:36.936Z,20.97
2019-06-20T02:33:05.700Z,20.80
2019-06-20T02:35:34.476Z,21.90
2019-06-20T02:38:03.265Z,21.03
2019-06-20T02:40:32.042Z,21.07
2019-06-20T02:43:00.827Z,21.70
2019-06-20T02:45:29.631Z,22.40
2019-06-20T02:47:58.467Z,22.70
2019-06-20T02:50:27.633Z,22.27
2019-06-20T02:52:56.436Z,21.93
2019-06-20T02:55:25.201Z,20.93
2019-06-20T02:57:54.071Z,21.37
2019-06-20T03:00:33.875Z,21.13
2019-06-20T03:03:02.655Z,21.93
2019-06-20T03:05:31.508Z,20.33
2019-06-20T03:08:00.412Z,21.60
2019-06-20T03:10:29.324Z,21.47
2019-06-20T03:12:58.156Z,22.47
2019-06-20T03:15:26.953Z,21.47
2019-06-20T03:17:55.742Z,22.40
2019-06-20T03:20:24.572Z,23.53
2019-06-20T03:22:53.473Z,24.53
2019-06-20T03:25:22.579Z,23.70
2019-06-20T03:27:51.520Z,22.43
2019-06-20T03:30:20.307Z,24.47
2019-06-20T03:32:49.086Z,24.50
2019-06-20T03:35:17.883Z,23.90
2019-06-20T03:37:50.121Z,24.93
2019-06-20T03:40:17.705Z,23.33
2019-06-20T03:42:46.528Z,25.03
2019-06-20T03:45:15.375Z,24.47
2019-06-20T03:47:44.135Z,24.37
2019-06-20T03:50:12.969Z,23.43
2019-06-20T03:52:41.795Z,24.30
2019-06-20T03:55:10.692Z,25.23
2019-06-20T03:57:39.522Z,21.73
2019-06-20T04:00:08.547Z,20.70
2019-06-20T04:02:37.363Z,20.27
2019-06-20T04:05:06.189Z,22.17
2019-06-20T04:07:34.971Z,21.83
2019-06-20T04:10:03.826Z,22.27
2019-06-20T04:12:32.615Z,22.20
2019-06-20T04:15:15.084Z,21.60
2019-06-20T04:17:31.931Z,22.30
2019-06-20T04:20:00.771Z,22.43
2019-06-20T04:22:29.543Z,21.13
2019-06-20T04:24:58.356Z,20.80
2019-06-20T04:27:27.131Z,21.07
2019-06-20T04:29:55.980Z,17.53
2019-06-20T04:32:24.859Z,18.00
2019-06-20T04:34:53.648Z,21.33
2019-06-20T04:37:22.442Z,18.90
2019-06-20T04:39:51.240Z,17.37
2019-06-20T04:42:19.992Z,15.50
2019-06-20T04:44:49.755Z,15.87
2019-06-20T04:47:37.881Z,15.67
2019-06-20T04:50:06.735Z,14.33
2019-06-20T04:52:35.578Z,15.53
2019-06-20T04:55:04.543Z,14.50
2019-06-20T04:57:33.441Z,14.17
2019-06-20T05:00:02.555Z,13.43
2019-06-20T05:02:34.652Z,13.03
2019-06-20T05:05:05.069Z,13.43
2019-06-20T05:07:33.869Z,14.17
2019-06-20T05:10:02.694Z,13.77
2019-06-20T05:12:31.561Z,14.57
2019-06-20T05:15:00.428Z,12.50
2019-06-20T05:17:29.294Z,12.03
2019-06-20T05:19:58.088Z,13.60
2019-06-20T05:22:27.013Z,11.57
2019-06-20T05:24:55.795Z,12.67
2019-06-20T05:27:24.627Z,12.40
2019-06-20T05:29:53.433Z,12.23
2019-06-20T05:32:22.201Z,13.03
2019-06-20T05:34:51.004Z,13.57
2019-06-20T05:37:19.842Z,11.70
2019-06-20T05:39:48.614Z,12.33
2019-06-20T05:42:17.491Z,11.73
2019-06-20T05:44:46.268Z,11.73
2019-06-20T05:47:15.040Z,12.80
2019-06-20T05:49:43.825Z,11.60
2019-06-20T05:52:12.669Z,12.83
2019-06-20T05:54:41.523Z,12.07
2019-06-20T05:57:10.552Z,11.73
2019-06-20T05:59:39.491Z,13.47
2019-06-20T06:02:08.353Z,10.87
2019-06-20T06:04:37.212Z,10.90
2019-06-20T06:07:06.096Z,11.37
2019-06-20T06:09:34.948Z,14.97
2019-06-20T06:12:04.028Z,12.47
2019-06-20T06:14:32.914Z,12.80
2019-06-20T06:17:01.775Z,11.07
2019-06-20T06:19:30.568Z,11.30
2019-06-20T06:21:59.368Z,18.70
2019-06-20T06:24:28.216Z,12.13
2019-06-20T06:26:59.853Z,11.87
2019-06-20T06:29:27.595Z,13.23
2019-06-20T06:31:56.383Z,16.50
2019-06-20T06:34:25.186Z,12.23
2019-06-20T06:36:54.005Z,16.80
2019-06-20T06:39:22.867Z,14.83
2019-06-20T06:41:51.664Z,12.53
2019-06-20T06:44:20.541Z,12.90
2019-06-20T06:46:55.512Z,13.23
2019-06-20T06:49:19.903Z,12.53
2019-06-20T06:51:48.799Z,11.47
2019-06-20T06:54:17.675Z,11.27
2019-06-20T06:56:46.443Z,11.13
2019-06-20T06:59:34.499Z,13.20
2019-06-20T07:02:03.318Z,13.47
2019-06-20T07:04:32.066Z,11.33
2019-06-20T07:07:00.886Z,11.50
2019-06-20T07:09:29.704Z,11.13
2019-06-20T07:11:58.532Z,11.33
2019-06-20T07:14:27.328Z,10.83
2019-06-20T07:17:00.405Z,10.40
2019-06-20T07:19:26.601Z,11.17
2019-06-20T07:21:55.424Z,9.90
2019-06-20T07:24:24.235Z,11.20
2019-06-20T07:26:53.011Z,10.00
2019-06-20T07:29:21.838Z,9.87
2019-06-20T07:31:50.726Z,10.70
2019-06-20T07:34:19.698Z,12.23
2019-06-20T07:36:49.386Z,10.80
2019-06-20T07:39:18.238Z,11.53
2019-06-20T07:41:47.051Z,15.23
2019-06-20T07:44:15.953Z,10.33
2019-06-20T07:46:44.756Z,10.83
2019-06-20T07:49:13.530Z,12.47
2019-06-20T07:51:42.291Z,10.67
2019-06-20T07:54:11.106Z,11.73
2019-06-20T07:56:39.892Z,10.60
2019-06-20T07:59:08.839Z,11.53
2019-06-20T08:01:37.624Z,10.77
2019-06-20T08:04:06.435Z,10.83
2019-06-20T08:06:35.303Z,13.17
2019-06-20T08:09:06.047Z,10.10
2019-06-20T08:11:34.800Z,10.63
2019-06-20T08:14:03.583Z,9.20
2019-06-20T08:16:32.375Z,9.47
2019-06-20T08:19:01.168Z,8.50
2019-06-20T08:21:30.088Z,8.40
2019-06-20T08:23:58.884Z,11.00
2019-06-20T08:26:28.077Z,17.67
2019-06-20T08:29:10.230Z,10.20
2019-06-20T08:31:27.490Z,13.70
2019-06-20T08:33:57.688Z,10.93
2019-06-20T08:36:26.927Z,14.43
2019-06-20T08:38:57.002Z,9.37
2019-06-20T08:41:26.232Z,11.30
2019-06-20T08:43:55.561Z,9.17
2019-06-20T08:46:25.609Z,15.40
2019-06-20T08:48:54.911Z,17.07
2019-06-20T08:51:25.086Z,12.33
2019-06-20T08:53:55.757Z,8.50
2019-06-20T08:56:24.406Z,9.63
2019-06-20T08:58:53.974Z,8.97
2019-06-20T09:01:23.060Z,9.70
2019-06-20T09:03:51.827Z,9.00
2019-06-20T09:06:20.664Z,9.33
2019-06-20T09:08:49.458Z,10.77
2019-06-20T09:11:18.242Z,9.77
2019-06-20T09:13:47.683Z,10.07
2019-06-20T09:16:24.438Z,9.53
2019-06-20T09:18:46.976Z,10.07
2019-06-20T09:21:15.847Z,10.37
2019-06-20T09:23:44.644Z,10.60
2019-06-20T09:26:13.438Z,10.77
2019-06-20T09:28:42.383Z,13.60
2019-06-20T09:31:11.173Z,12.17
2019-06-20T09:33:40.071Z,10.83
2019-06-20T09:36:08.877Z,12.13
2019-06-20T09:38:37.635Z,11.17
2019-06-20T09:41:06.462Z,11.30
2019-06-20T09:46:29.857Z,12.53
2019-06-20T09:48:58.781Z,13.60
2019-06-20T09:51:27.665Z,14.33
2019-06-20T09:53:56.556Z,13.30
2019-06-20T09:56:25.345Z,14.70
2019-06-20T09:58:55.308Z,14.77
2019-06-20T10:01:24.312Z,15.57
2019-06-20T10:03:54.661Z,15.30
2019-06-20T10:06:23.677Z,15.10
2019-06-20T10:08:52.539Z,14.93
2019-06-20T10:11:21.391Z,16.17
2019-06-20T10:13:50.161Z,15.37
2019-06-20T10:16:19.044Z,15.60
2019-06-20T10:18:48.464Z,15.30
2019-06-20T10:21:17.746Z,15.57
2019-06-20T10:23:47.685Z,14.70
2019-06-20T10:26:16.673Z,14.63
2019-06-20T10:28:46.308Z,14.07
2019-06-20T10:31:16.234Z,14.67
2019-06-20T10:33:45.741Z,14.60
2019-06-20T10:36:15.610Z,14.50
2019-06-20T10:38:45.343Z,14.00
2019-06-20T10:41:15.115Z,14.10
2019-06-20T10:43:44.694Z,13.80
2019-06-20T10:46:14.475Z,13.97
2019-06-20T10:48:44.358Z,14.07
2019-06-20T10:51:51.943Z,13.10
2019-06-20T10:54:20.964Z,12.30
2019-06-20T10:56:50.969Z,12.50
2019-06-20T10:59:19.949Z,11.90
2019-06-20T11:01:48.790Z,12.37
2019-06-20T11:04:17.600Z,11.83
2019-06-20T11:06:47.636Z,11.73
2019-06-20T11:09:16.667Z,10.97
2019-06-20T11:11:46.989Z,10.97
2019-06-20T11:14:15.964Z,10.60
2019-06-20T11:16:45.194Z,10.23
2019-06-20T11:19:14.237Z,10.33
2019-06-20T11:21:43.280Z,9.47
2019-06-20T11:24:12.110Z,8.63
2019-06-20T11:26:41.148Z,8.93
2019-06-20T11:29:10.108Z,8.47
2019-06-20T11:31:42.646Z,8.17
2019-06-20T11:34:09.607Z,8.80
2019-06-20T11:36:38.740Z,8.07
2019-06-20T11:39:07.898Z,7.80
2019-06-20T11:41:38.018Z,8.10
2019-06-20T11:44:07.609Z,7.37
2019-06-20T11:46:37.032Z,7.27
2019-06-20T11:49:06.335Z,6.73
2019-06-20T11:51:35.966Z,7.37
2019-06-20T11:54:04.943Z,6.63
2019-06-20T11:56:33.783Z,7.03
2019-06-20T11:59:02.591Z,6.63
2019-06-20T12:01:33.063Z,6.20
2019-06-20T12:04:01.863Z,5.90
2019-06-20T12:06:30.674Z,6.37
2019-06-20T12:08:59.568Z,5.93
2019-06-20T12:11:28.402Z,5.73
2019-06-20T12:13:57.312Z,5.53
2019-06-20T12:16:26.121Z,5.10
2019-06-20T12:18:55.246Z,5.13
2019-06-20T12:21:24.177Z,4.73
2019-06-20T12:23:52.946Z,4.90
2019-06-20T12:26:21.739Z,4.60
2019-06-20T12:28:50.527Z,5.73
2019-06-20T12:31:20.102Z,5.93
2019-06-20T12:33:49.547Z,6.80
2019-06-20T12:36:18.493Z,5.90
2019-06-20T12:38:48.348Z,5.90
2019-06-20T12:41:17.439Z,6.60
2019-06-20T12:43:46.411Z,7.57
2019-06-20T12:46:15.279Z,7.50
2019-06-20T12:48:45.075Z,8.00
2019-06-20T12:51:14.091Z,8.30
2019-06-20T12:53:44.168Z,9.20
2019-06-20T12:56:13.090Z,9.67
2019-06-20T12:58:42.251Z,10.40
2019-06-20T13:01:11.188Z,10.73
2019-06-20T13:03:40.488Z,11.50
2019-06-20T13:06:09.440Z,11.83
2019-06-20T13:08:39.018Z,11.70
2019-06-20T13:11:08.852Z,11.97
2019-06-20T13:13:38.828Z,12.63
2019-06-20T13:16:08.476Z,12.73
2019-06-20T13:18:37.238Z,12.70
2019-06-20T13:21:06.015Z,13.40
2019-06-20T13:23:34.852Z,13.33
2019-06-20T13:26:03.650Z,14.27
2019-06-20T13:28:32.488Z,14.30
2019-06-20T13:31:01.477Z,14.90
2019-06-20T13:33:30.283Z,15.17
2019-06-20T13:35:59.199Z,15.50
2019-06-20T13:38:27.991Z,15.47
2019-06-20T13:40:56.776Z,14.43
2019-06-20T13:43:25.553Z,15.43
2019-06-20T13:45:54.391Z,16.90
2019-06-20T13:48:23.219Z,16.30
2019-06-20T13:50:52.830Z,16.03
2019-06-20T13:53:21.657Z,17.37
2019-06-20T13:55:50.511Z,18.13
2019-06-20T13:58:19.464Z,19.97
2019-06-20T14:00:48.282Z,19.57
2019-06-20T14:03:17.154Z,20.57
2019-06-20T14:05:47.231Z,20.37
2019-06-20T14:08:16.437Z,20.70
2019-06-20T14:10:46.036Z,20.67
2019-06-20T14:13:19.422Z,20.50
2019-06-20T14:15:46.454Z,21.03
2019-06-20T14:18:15.243Z,21.30
2019-06-20T14:20:44.874Z,21.53
2019-06-20T14:23:13.713Z,22.97
2019-06-20T14:25:43.688Z,24.87
2019-06-20T14:28:12.679Z,25.53
2019-06-20T14:30:43.182Z,25.67
2019-06-20T14:33:12.040Z,26.60
2019-06-20T14:35:43.479Z,26.77
2019-06-20T14:38:11.364Z,26.80
2019-06-20T14:40:40.199Z,26.87
2019-06-20T14:43:09.014Z,27.13
2019-06-20T14:45:38.136Z,26.50
2019-06-20T14:48:07.121Z,27.03
2019-06-20T14:50:35.938Z,25.67
2019-06-20T14:53:04.708Z,24.90
2019-06-20T14:55:33.487Z,25.07
2019-06-20T14:58:02.363Z,25.17
2019-06-20T15:00:31.196Z,25.10
2019-06-20T15:03:19.254Z,25.37
2019-06-20T15:05:48.317Z,24.03
2019-06-20T15:08:17.195Z,24.53
2019-06-20T15:10:47.185Z,21.80
2019-06-20T15:13:16.482Z,24.20
2019-06-20T15:15:46.599Z,23.23
2019-06-20T15:18:15.851Z,24.03
2019-06-20T15:20:45.178Z,25.37
2019-06-20T15:23:15.243Z,25.47
2019-06-20T15:25:45.776Z,24.70
2019-06-20T15:28:14.615Z,24.10
2019-06-20T15:30:43.427Z,24.57
2019-06-20T15:33:12.200Z,24.03
2019-06-20T15:35:41.142Z,24.43
2019-06-20T15:38:10.527Z,26.07
2019-06-20T15:40:39.464Z,25.90
2019-06-20T15:43:08.376Z,26.30
2019-06-20T15:45:37.214Z,26.63
2019-06-20T15:48:05.996Z,28.07
2019-06-20T15:50:34.824Z,26.90
2019-06-20T15:53:03.867Z,28.10
2019-06-20T15:55:32.735Z,26.93
2019-06-20T15:58:01.587Z,28.93
2019-06-20T16:00:30.367Z,27.80
2019-06-20T16:03:09.602Z,28.33
2019-06-20T16:05:29.824Z,29.07
2019-06-20T16:07:58.587Z,27.80
2019-06-20T16:10:27.501Z,30.10
2019-06-20T16:12:56.360Z,28.93
2019-06-20T16:15:25.152Z,32.67
2019-06-20T16:17:54.092Z,30.87
2019-06-20T16:20:22.905Z,32.20
2019-06-20T16:22:51.750Z,31.03
2019-06-20T16:25:21.086Z,33.73
2019-06-20T16:27:49.875Z,32.37
2019-06-20T16:30:18.713Z,32.77
2019-06-20T16:32:47.719Z,32.67
2019-06-20T16:35:16.583Z,35.37
2019-06-20T16:37:45.416Z,35.13
2019-06-20T16:40:14.230Z,33.90
2019-06-20T16:42:43.160Z,34.90
2019-06-20T16:45:12.011Z,34.83
2019-06-20T16:47:40.893Z,33.73
2019-06-20T16:50:11.315Z,34.77
2019-06-20T16:52:40.114Z,34.87
2019-06-20T16:55:09.170Z,33.40
2019-06-20T16:57:37.977Z,33.93
2019-06-20T17:00:07.015Z,33.03
2019-06-20T17:02:35.829Z,32.83
2019-06-20T17:05:05.181Z,32.80
2019-06-20T17:07:33.982Z,31.67
2019-06-20T17:10:02.960Z,32.30
2019-06-20T17:12:31.825Z,30.60
2019-06-20T17:15:00.603Z,29.90
2019-06-20T17:17:29.434Z,31.27
2019-06-20T17:19:58.215Z,28.60
2019-06-20T17:22:27.094Z,29.83
2019-06-20T17:24:55.911Z,28.23
2019-06-20T17:27:24.828Z,27.30
2019-06-20T17:29:53.628Z,27.13
2019-06-20T17:32:22.421Z,28.17
2019-06-20T17:34:51.301Z,26.73
2019-06-20T17:37:20.216Z,25.40
2019-06-20T17:39:49.341Z,26.20
2019-06-20T17:42:18.198Z,25.47
2019-06-20T17:44:47.087Z,24.90
2019-06-20T17:47:15.856Z,25.93
2019-06-20T17:49:44.645Z,25.07
2019-06-20T17:52:13.439Z,24.20
2019-06-20T17:54:42.301Z,25.17
2019-06-20T17:57:11.146Z,24.93
2019-06-20T17:59:40.062Z,24.83
2019-06-20T18:02:08.859Z,24.63
2019-06-20T18:04:37.700Z,25.17
2019-06-20T18:07:06.970Z,25.67
2019-06-20T18:09:35.837Z,24.83
2019-06-20T18:12:04.749Z,24.93
2019-06-20T18:14:34.299Z,25.23
2019-06-20T18:17:03.201Z,25.60
2019-06-20T18:19:32.032Z,26.47
2019-06-20T18:22:00.887Z,25.07
2019-06-20T18:24:29.663Z,24.33
2019-06-20T18:26:58.426Z,23.97
2019-06-20T18:29:27.232Z,24.23
2019-06-20T18:31:56.018Z,24.17
2019-06-20T18:34:29.841Z,24.30
2019-06-20T18:36:55.554Z,23.73
2019-06-20T18:39:24.657Z,24.33
2019-06-20T18:41:53.533Z,24.57
2019-06-20T18:44:22.377Z,24.47
2019-06-20T18:46:51.254Z,24.00
2019-06-20T18:49:20.060Z,22.23
2019-06-20T18:51:49.170Z,23.03
2019-06-20T18:54:18.047Z,21.73
2019-06-20T18:56:46.847Z,22.30
2019-06-20T18:59:15.706Z,21.50
2019-06-20T19:01:44.474Z,20.77
2019-06-20T19:04:13.379Z,20.93
2019-06-20T19:06:42.248Z,20.63
2019-06-20T19:09:11.132Z,19.67
2019-06-20T19:11:39.939Z,19.33
2019-06-20T19:14:12.371Z,19.67
2019-06-20T19:16:39.376Z,20.00
2019-06-20T19:19:08.191Z,18.67
2019-06-20T19:21:36.979Z,17.97
2019-06-20T19:24:05.883Z,18.80
2019-06-20T19:26:34.721Z,17.63
2019-06-20T19:29:03.589Z,18.33
2019-06-20T19:31:32.446Z,18.83
2019-06-20T19:34:01.348Z,18.57
2019-06-20T19:36:30.201Z,18.90
2019-06-20T19:38:59.119Z,19.63
2019-06-20T19:41:27.907Z,19.00
2019-06-20T19:43:56.789Z,19.20
2019-06-20T19:46:25.637Z,20.13
2019-06-20T19:48:54.494Z,18.90
2019-06-20T19:51:23.367Z,20.93
2019-06-20T19:53:52.171Z,22.00
2019-06-20T19:56:20.963Z,21.43
2019-06-20T19:58:50.117Z,21.77
2019-06-20T20:01:19.206Z,21.80
2019-06-20T20:03:48.097Z,24.07
2019-06-20T20:06:16.890Z,22.97
2019-06-20T20:08:45.703Z,24.83
2019-06-20T20:11:14.487Z,25.20
2019-06-20T20:13:43.483Z,26.67
2019-06-20T20:16:12.331Z,26.03
2019-06-20T20:18:41.303Z,27.90
2019-06-20T20:21:10.227Z,27.40
2019-06-20T20:23:39.056Z,28.23
2019-06-20T20:26:08.944Z,28.60
2019-06-20T20:28:37.904Z,29.67
2019-06-20T20:31:06.678Z,29.60
2019-06-20T20:33:35.531Z,30.47
2019-06-20T20:36:04.416Z,31.33
2019-06-20T20:38:33.189Z,32.00
2019-06-20T20:41:02.013Z,30.90
2019-06-20T20:43:30.861Z,28.37
2019-06-20T20:45:59.720Z,17.57
2019-06-20T20:48:28.484Z,15.17
2019-06-20T20:50:57.366Z,15.10
2019-06-20T20:53:26.324Z,8.37
2019-06-20T20:55:55.088Z,10.87
2019-06-20T20:58:23.903Z,8.43
2019-06-20T21:01:06.647Z,10.87
2019-06-20T21:03:35.508Z,9.63
2019-06-20T21:06:04.388Z,12.83
2019-06-20T21:08:33.199Z,11.97
2019-06-20T21:11:02.035Z,8.33
2019-06-20T21:13:30.851Z,10.57
2019-06-20T21:15:59.693Z,9.70
2019-06-20T21:18:28.566Z,8.77
2019-06-20T21:20:57.516Z,8.50
2019-06-20T21:23:26.302Z,7.90
2019-06-20T21:25:55.169Z,8.30
2019-06-20T21:28:23.927Z,8.83
2019-06-20T21:30:52.755Z,11.60
2019-06-20T21:33:21.579Z,11.50
2019-06-20T21:35:50.368Z,7.67
2019-06-20T21:38:19.123Z,7.10
2019-06-20T21:40:48.012Z,8.63
2019-06-20T21:43:16.901Z,10.97
2019-06-20T21:45:46.113Z,10.53
2019-06-20T21:48:15.305Z,10.33
2019-06-20T21:50:44.251Z,14.43
2019-06-20T21:53:13.047Z,6.27
2019-06-20T21:55:41.864Z,11.27
2019-06-20T21:58:10.653Z,9.53
2019-06-20T22:00:41.615Z,11.50
2019-06-20T22:03:10.429Z,14.00
2019-06-20T22:05:39.348Z,9.57
2019-06-20T22:08:08.114Z,10.03
2019-06-20T22:10:36.950Z,11.53
2019-06-20T22:13:05.850Z,12.73
2019-06-20T22:15:34.679Z,11.37
2019-06-20T22:18:03.473Z,10.47
2019-06-20T22:20:32.240Z,11.63
2019-06-20T22:23:01.103Z,9.93
2019-06-20T22:25:29.980Z,9.93
2019-06-20T22:27:58.736Z,12.30
2019-06-20T22:30:42.607Z,10.10
2019-06-20T22:33:11.382Z,9.50
2019-06-20T22:35:40.165Z,9.83
2019-06-20T22:38:09.411Z,13.17
2019-06-20T22:40:38.171Z,10.03
2019-06-20T22:43:07.020Z,8.43
2019-06-20T22:45:35.909Z,9.97
2019-06-20T22:48:05.268Z,12.60
2019-06-20T22:50:34.044Z,10.87
2019-06-20T22:53:02.870Z,11.43
2019-06-20T22:55:31.787Z,14.83
2019-06-20T22:58:00.573Z,18.80
2019-06-20T23:00:29.355Z,9.43
2019-06-20T23:02:58.119Z,12.27
2019-06-20T23:05:26.890Z,12.07
2019-06-20T23:07:55.678Z,10.07
2019-06-20T23:10:24.610Z,9.67
2019-06-20T23:12:53.482Z,14.63
2019-06-20T23:15:22.288Z,10.60
2019-06-20T23:17:51.063Z,12.10
2019-06-20T23:20:20.910Z,11.87
2019-06-20T23:22:49.801Z,12.57
2019-06-20T23:25:18.574Z,16.00
2019-06-20T23:27:47.348Z,11.97
2019-06-20T23:30:16.225Z,18.33
2019-06-20T23:32:45.115Z,17.93
2019-06-20T23:35:13.943Z,13.17
2019-06-20T23:37:42.759Z,12.77
2019-06-20T23:40:11.626Z,14.13
2019-06-20T23:42:40.427Z,12.30
2019-06-20T23:45:09.356Z,10.70
2019-06-20T23:47:38.198Z,9.57
2019-06-20T23:50:09.614Z,10.43
2019-06-20T23:52:40.060Z,11.60
2019-06-20T23:55:09.229Z,12.67
2019-06-20T23:57:37.999Z,10.73
